Snoqualmie River: Middle Fork station

back to: Snoqualmie river
Middle Fork station Summary - (NOAA Hydrograph: TANW1)
Latest reading:
Fri11/16 02:15 pm 3.08 ft 862 cfs (+64/hr)
Past 24hr max:
Fri11/16 10:45 am 3.09 ft 867 cfs
Forecasted crests: (published Fri 11/16/18 03:04 pm)
Fri11/16 04:00 pm 3.04 ft 840 cfs
Fri11/23 04:00 am 3.77 ft 1283 cfs
Fri11/23 10:00 pm 3.85 ft 1338 cfs
Sun11/25 04:00 am 4.26 ft 1660 cfs

Middle Fork station Details

Latest Readings

Last 100 Readings:
Fri11/16 02:15 pm 3.08 ft 862 cfs
Fri11/16 02:00 pm 3.05 ft 846 cfs
Fri11/16 01:45 pm 3.05 ft 846 cfs
Fri11/16 01:30 pm 3.04 ft 841 cfs
Fri11/16 01:15 pm 3.05 ft 846 cfs
Fri11/16 01:00 pm 3.07 ft 856 cfs
Fri11/16 12:45 pm 3.08 ft 862 cfs
Fri11/16 12:30 pm 3.07 ft 856 cfs
Fri11/16 12:15 pm 3.07 ft 856 cfs
Fri11/16 12:00 pm 3.08 ft 862 cfs
Fri11/16 11:45 am 3.07 ft 856 cfs
Fri11/16 11:30 am 3.07 ft 856 cfs
Fri11/16 11:15 am 3.05 ft 846 cfs
Fri11/16 11:00 am 3.08 ft 862 cfs
Fri11/16 10:45 am 3.09 ft 867 cfs
Fri11/16 10:30 am 3.06 ft 851 cfs
Fri11/16 10:15 am 3.06 ft 851 cfs
Fri11/16 10:00 am 3.04 ft 841 cfs
Fri11/16 09:45 am 3.07 ft 856 cfs
Fri11/16 09:30 am 3.03 ft 835 cfs
Fri11/16 09:15 am 3.04 ft 841 cfs
Fri11/16 09:00 am 3.03 ft 835 cfs
Fri11/16 08:45 am 3.03 ft 835 cfs
Fri11/16 08:30 am 2.99 ft 815 cfs
Fri11/16 08:15 am 2.97 ft 804 cfs
Fri11/16 08:00 am 2.97 ft 804 cfs
Fri11/16 07:45 am 2.94 ft 789 cfs
Fri11/16 07:30 am 2.9 ft 769 cfs
Fri11/16 07:15 am 2.91 ft 774 cfs
Fri11/16 07:00 am 2.88 ft 759 cfs
Fri11/16 06:45 am 2.88 ft 759 cfs
Fri11/16 06:30 am 2.86 ft 750 cfs
Fri11/16 06:15 am 2.86 ft 750 cfs
Fri11/16 06:00 am 2.85 ft 745 cfs
Fri11/16 05:45 am 2.85 ft 745 cfs
Fri11/16 05:30 am 2.82 ft 730 cfs
Fri11/16 05:15 am 2.82 ft 730 cfs
Fri11/16 05:00 am 2.8 ft 721 cfs
Fri11/16 04:45 am 2.78 ft 711 cfs
Fri11/16 04:30 am 2.79 ft 716 cfs
Fri11/16 04:15 am 2.76 ft 702 cfs
Fri11/16 04:00 am 2.77 ft 707 cfs
Fri11/16 03:45 am 2.75 ft 697 cfs
Fri11/16 03:30 am 2.73 ft 688 cfs
Fri11/16 03:15 am 2.69 ft 670 cfs
Fri11/16 03:00 am 2.7 ft 674 cfs
Fri11/16 02:45 am 2.66 ft 656 cfs
Fri11/16 02:30 am 2.67 ft 661 cfs
Fri11/16 02:15 am 2.67 ft 661 cfs
Fri11/16 02:00 am 2.64 ft 647 cfs
Fri11/16 01:45 am 2.61 ft 634 cfs
Fri11/16 01:30 am 2.57 ft 617 cfs
Fri11/16 01:15 am 2.59 ft 625 cfs
Fri11/16 01:00 am 2.59 ft 625 cfs
Fri11/16 12:46 am 2.58 ft 621 cfs
Fri11/16 12:45 am 2.58 ft 621 cfs
Fri11/16 12:30 am 2.58 ft 621 cfs
Fri11/16 12:15 am 2.58 ft 621 cfs
Fri11/16 12:00 am 2.57 ft 617 cfs
Thu11/15 11:45 pm 2.58 ft 621 cfs
Thu11/15 11:30 pm 2.56 ft 612 cfs
Thu11/15 11:15 pm 2.57 ft 617 cfs
Thu11/15 11:00 pm 2.58 ft 621 cfs
Thu11/15 10:45 pm 2.58 ft 621 cfs
Thu11/15 10:30 pm 2.57 ft 617 cfs
Thu11/15 10:15 pm 2.58 ft 621 cfs
Thu11/15 10:00 pm 2.57 ft 617 cfs
Thu11/15 09:45 pm 2.58 ft 621 cfs
Thu11/15 09:30 pm 2.57 ft 617 cfs
Thu11/15 09:15 pm 2.58 ft 621 cfs
Thu11/15 09:00 pm 2.56 ft 612 cfs
Thu11/15 08:45 pm 2.58 ft 621 cfs
Thu11/15 08:30 pm 2.57 ft 617 cfs
Thu11/15 08:15 pm 2.57 ft 617 cfs
Thu11/15 08:00 pm 2.6 ft 630 cfs
Thu11/15 07:45 pm 2.59 ft 625 cfs
Thu11/15 07:30 pm 2.59 ft 625 cfs
Thu11/15 07:15 pm 2.6 ft 630 cfs
Thu11/15 07:00 pm 2.58 ft 621 cfs
Thu11/15 06:45 pm 2.58 ft 621 cfs
Thu11/15 06:30 pm 2.61 ft 634 cfs
Thu11/15 06:15 pm 2.6 ft 630 cfs
Thu11/15 06:00 pm 2.58 ft 621 cfs
Thu11/15 05:45 pm 2.6 ft 630 cfs
Thu11/15 05:30 pm 2.59 ft 625 cfs
Thu11/15 05:15 pm 2.6 ft 630 cfs
Thu11/15 05:00 pm 2.6 ft 630 cfs
Thu11/15 04:45 pm 2.6 ft 630 cfs
Thu11/15 04:30 pm 2.61 ft 634 cfs
Thu11/15 04:15 pm 2.59 ft 625 cfs
Thu11/15 04:00 pm 2.61 ft 634 cfs
Thu11/15 03:45 pm 2.61 ft 634 cfs
Thu11/15 03:30 pm 2.62 ft 638 cfs
Thu11/15 03:15 pm 2.61 ft 634 cfs
Thu11/15 03:00 pm 2.6 ft 630 cfs
Thu11/15 02:45 pm 2.61 ft 634 cfs
Thu11/15 02:30 pm 2.61 ft 634 cfs
Thu11/15 02:15 pm 2.62 ft 638 cfs
Thu11/15 02:00 pm 2.63 ft 643 cfs
Thu11/15 01:45 pm 2.62 ft 638 cfs

Latest Forecasts

Currently Forecasted Readings:
Fri11/16 04:00 pm 3.04 ft 840 cfs
Fri11/16 10:00 pm 2.77 ft 706 cfs
Sat11/17 04:00 am 2.53 ft 601 cfs
Sat11/17 10:00 am 2.33 ft 519 cfs
Sat11/17 04:00 pm 2.15 ft 452 cfs
Sat11/17 10:00 pm 1.98 ft 396 cfs
Sun11/18 04:00 am 1.9 ft 371 cfs
Sun11/18 10:00 am 1.83 ft 351 cfs
Sun11/18 04:00 pm 1.77 ft 333 cfs
Sun11/18 10:00 pm 1.72 ft 318 cfs
Mon11/19 04:00 am 1.67 ft 304 cfs
Mon11/19 10:00 am 1.62 ft 292 cfs
Mon11/19 04:00 pm 1.58 ft 281 cfs
Mon11/19 10:00 pm 1.54 ft 271 cfs
Tue11/20 04:00 am 1.51 ft 263 cfs
Tue11/20 10:00 am 1.48 ft 254 cfs
Tue11/20 04:00 pm 1.45 ft 247 cfs
Tue11/20 10:00 pm 1.42 ft 240 cfs
Wed11/21 04:00 am 1.39 ft 234 cfs
Wed11/21 10:00 am 1.48 ft 254 cfs
Wed11/21 04:00 pm 1.69 ft 309 cfs
Wed11/21 10:00 pm 1.98 ft 395 cfs
Thu11/22 04:00 am 2.24 ft 485 cfs
Thu11/22 10:00 am 2.27 ft 495 cfs
Thu11/22 04:00 pm 2.79 ft 718 cfs
Thu11/22 10:00 pm 3.41 ft 1048 cfs
Fri11/23 04:00 am 3.77 ft 1283 cfs
Fri11/23 10:00 am 3.68 ft 1226 cfs
Fri11/23 04:00 pm 3.68 ft 1223 cfs
Fri11/23 10:00 pm 3.85 ft 1338 cfs
Sat11/24 04:00 am 3.8 ft 1304 cfs
Sat11/24 10:00 am 3.91 ft 1383 cfs
Sat11/24 04:00 pm 4.05 ft 1488 cfs
Sat11/24 10:00 pm 4.1 ft 1527 cfs
Sun11/25 04:00 am 4.26 ft 1660 cfs
Sun11/25 10:00 am 4.23 ft 1630 cfs
Sun11/25 04:00 pm 4.1 ft 1530 cfs
Sun11/25 10:00 pm 3.81 ft 1316 cfs
Mon11/26 04:00 am 3.68 ft 1223 cfs

Snoqualmie River flood gauge data supplied by the
National Weather Service Northwest River Forecast Center.

Sign up for Floodzilla alerts.